createdAt,value
2019-05-14T00:02:21.460Z,2.20
2019-05-14T00:04:51.026Z,2.10
2019-05-14T00:07:19.085Z,1.70
2019-05-14T00:09:47.074Z,2.17
2019-05-14T00:12:15.127Z,2.07
2019-05-14T00:14:43.957Z,2.07
2019-05-14T00:17:12.284Z,2.10
2019-05-14T00:19:41.698Z,1.90
2019-05-14T00:22:11.726Z,2.10
2019-05-14T00:24:41.711Z,2.03
2019-05-14T00:27:11.514Z,2.10
2019-05-14T00:29:41.860Z,2.03
2019-05-14T00:32:11.158Z,2.10
2019-05-14T00:34:39.297Z,2.20
2019-05-14T00:37:07.297Z,2.30
2019-05-14T00:39:35.293Z,2.03
2019-05-14T00:42:03.442Z,2.13
2019-05-14T00:44:32.601Z,1.60
2019-05-14T00:47:02.166Z,2.20
2019-05-14T00:49:31.688Z,1.90
2019-05-14T00:52:02.076Z,2.23
2019-05-14T00:54:32.042Z,2.10
2019-05-14T00:57:01.497Z,2.20
2019-05-14T00:59:31.985Z,2.30
2019-05-14T01:02:02.667Z,2.30
2019-05-14T01:04:31.213Z,2.00
2019-05-14T01:07:01.418Z,1.90
2019-05-14T01:09:31.481Z,1.90
2019-05-14T01:12:01.769Z,2.30
2019-05-14T01:14:31.740Z,2.20
2019-05-14T01:17:01.990Z,1.87
2019-05-14T01:19:31.519Z,2.00
2019-05-14T01:22:01.735Z,1.90
2019-05-14T01:24:32.146Z,2.10
2019-05-14T01:27:01.645Z,2.13
2019-05-14T01:29:31.634Z,2.03
2019-05-14T01:32:01.278Z,1.90
2019-05-14T01:34:29.421Z,2.10
2019-05-14T01:36:57.270Z,2.10
2019-05-14T01:39:26.140Z,2.53
2019-05-14T01:41:55.458Z,2.00
2019-05-14T01:44:23.313Z,1.90
2019-05-14T01:46:51.410Z,2.03
2019-05-14T01:49:19.381Z,2.10
2019-05-14T01:51:48.257Z,2.10
2019-05-14T01:54:16.437Z,2.13
2019-05-14T01:56:44.534Z,2.10
2019-05-14T01:59:12.573Z,1.97
2019-05-14T02:01:41.420Z,2.40
2019-05-14T02:04:11.636Z,1.90
2019-05-14T02:06:41.297Z,2.20
2019-05-14T02:09:11.123Z,1.80
2019-05-14T02:11:41.562Z,2.20
2019-05-14T02:14:11.522Z,2.73
2019-05-14T02:16:42.014Z,2.00
2019-05-14T02:19:11.416Z,1.97
2019-05-14T02:21:39.372Z,1.90
2019-05-14T02:24:07.338Z,1.83
2019-05-14T02:26:35.337Z,1.83
2019-05-14T02:29:03.306Z,1.90
2019-05-14T02:31:31.233Z,2.07
2019-05-14T02:33:59.384Z,2.10
2019-05-14T02:36:30.635Z,2.30
2019-05-14T02:39:00.327Z,1.90
2019-05-14T02:41:29.907Z,2.20
2019-05-14T02:43:59.389Z,1.83
2019-05-14T02:46:29.502Z,2.07
2019-05-14T02:48:59.537Z,1.90
2019-05-14T02:51:29.709Z,1.87
2019-05-14T02:53:59.184Z,2.03
2019-05-14T02:56:29.643Z,2.17
2019-05-14T02:58:59.773Z,2.03
2019-05-14T03:01:26.435Z,2.10
2019-05-14T03:03:54.366Z,2.03
2019-05-14T03:06:22.488Z,2.10
2019-05-14T03:08:50.434Z,2.00
2019-05-14T03:11:20.046Z,2.13
2019-05-14T03:13:49.469Z,2.00
2019-05-14T03:16:28.158Z,1.80
2019-05-14T03:18:50.292Z,2.10
2019-05-14T03:21:19.838Z,1.83
2019-05-14T03:23:49.655Z,2.10
2019-05-14T03:26:19.823Z,2.40
2019-05-14T03:28:49.590Z,2.30
2019-05-14T03:31:22.397Z,2.07
2019-05-14T03:33:52.572Z,2.00
2019-05-14T03:36:25.202Z,2.23
2019-05-14T03:38:50.143Z,2.10
2019-05-14T03:41:19.470Z,2.07
2019-05-14T03:43:49.354Z,1.90
2019-05-14T03:46:20.261Z,2.00
2019-05-14T03:48:49.129Z,1.80
2019-05-14T03:51:16.341Z,1.60
2019-05-14T03:53:57.211Z,2.10
2019-05-14T03:56:14.198Z,1.70
2019-05-14T03:58:43.213Z,1.80
2019-05-14T04:01:11.316Z,2.10
2019-05-14T04:03:40.071Z,2.20
2019-05-14T04:06:10.042Z,1.80
2019-05-14T04:08:39.477Z,2.10
2019-05-14T04:11:09.612Z,2.00
2019-05-14T04:13:40.652Z,2.07
2019-05-14T04:16:11.291Z,2.03
2019-05-14T04:18:40.812Z,1.90
2019-05-14T04:21:10.552Z,1.93
2019-05-14T04:23:40.185Z,2.40
2019-05-14T04:26:09.462Z,1.90
2019-05-14T04:28:39.327Z,1.93
2019-05-14T04:31:09.852Z,2.00
2019-05-14T04:33:39.431Z,2.40
2019-05-14T04:36:09.865Z,2.20
2019-05-14T04:38:40.963Z,1.90
2019-05-14T04:41:10.393Z,1.97
2019-05-14T04:43:40.061Z,2.13
2019-05-14T04:46:10.317Z,2.10
2019-05-14T04:48:42.955Z,1.73
2019-05-14T04:51:09.830Z,1.60
2019-05-14T04:53:39.344Z,1.70
2019-05-14T04:56:09.826Z,2.47
2019-05-14T04:58:40.494Z,1.97
2019-05-14T05:01:09.808Z,2.13
2019-05-14T05:03:39.731Z,2.17
2019-05-14T05:06:14.375Z,1.50
2019-05-14T05:08:51.257Z,1.90
2019-05-14T05:11:30.163Z,2.00
2019-05-14T05:14:09.147Z,1.90
2019-05-14T05:16:49.188Z,2.03
2019-05-14T05:19:39.087Z,1.80
2019-05-14T05:22:23.176Z,2.20
2019-05-14T05:25:09.218Z,1.90
2019-05-14T05:27:59.835Z,2.03
2019-05-14T05:30:42.935Z,1.70
2019-05-14T05:33:21.925Z,2.07
2019-05-14T05:35:50.846Z,1.93
2019-05-14T05:38:18.735Z,2.17
2019-05-14T05:40:48.538Z,1.73
2019-05-14T05:43:16.526Z,1.63
2019-05-14T05:45:44.438Z,1.80
2019-05-14T05:48:12.335Z,1.80
2019-05-14T05:50:40.256Z,1.77
2019-05-14T05:53:09.003Z,1.70
2019-05-14T05:55:39.392Z,1.53
2019-05-14T05:58:08.704Z,1.80
2019-05-14T06:00:39.915Z,1.80
2019-05-14T06:03:10.711Z,1.90
2019-05-14T06:05:38.986Z,1.90
2019-05-14T06:08:08.660Z,1.80
2019-05-14T06:10:39.709Z,1.60
2019-05-14T06:13:08.904Z,1.63
2019-05-14T06:15:45.546Z,1.60
2019-05-14T06:18:15.193Z,1.93
2019-05-14T06:20:38.688Z,1.93
2019-05-14T06:23:08.447Z,1.90
2019-05-14T06:25:36.328Z,1.70
2019-05-14T06:28:04.462Z,1.83
2019-05-14T06:30:39.285Z,1.73
2019-05-14T06:33:09.040Z,1.60
2019-05-14T06:35:39.353Z,1.47
2019-05-14T06:38:08.721Z,1.53
2019-05-14T06:40:36.195Z,1.60
2019-05-14T06:43:04.136Z,1.60
2019-05-14T06:45:31.985Z,1.80
2019-05-14T06:48:00.017Z,1.50
2019-05-14T06:50:29.133Z,1.60
2019-05-14T06:52:58.121Z,1.90
2019-05-14T06:55:28.292Z,1.90
2019-05-14T06:57:58.386Z,1.80
2019-05-14T07:00:28.591Z,1.60
2019-05-14T07:02:58.296Z,1.47
2019-05-14T07:05:28.130Z,1.80
2019-05-14T07:07:59.535Z,1.70
2019-05-14T07:10:28.541Z,1.60
2019-05-14T07:12:56.046Z,1.60
2019-05-14T07:15:24.189Z,1.77
2019-05-14T07:17:52.133Z,1.40
2019-05-14T07:20:20.081Z,1.60
2019-05-14T07:22:48.496Z,1.63
2019-05-14T07:25:18.402Z,1.30
2019-05-14T07:27:46.307Z,1.60
2019-05-14T07:30:14.298Z,1.60
2019-05-14T07:32:42.555Z,1.60
2019-05-14T07:35:10.758Z,1.50
2019-05-14T07:37:39.627Z,1.50
2019-05-14T07:40:09.644Z,1.60
2019-05-14T07:42:38.337Z,1.40
2019-05-14T07:45:09.368Z,1.70
2019-05-14T07:47:38.855Z,1.53
2019-05-14T07:50:08.584Z,1.77
2019-05-14T07:52:36.333Z,1.60
2019-05-14T07:55:05.022Z,1.80
2019-05-14T07:57:33.192Z,2.00
2019-05-14T08:00:01.001Z,1.67
2019-05-14T08:02:29.160Z,1.67
2019-05-14T08:04:58.022Z,1.40
2019-05-14T08:07:28.043Z,1.40
2019-05-14T08:09:58.296Z,1.63
2019-05-14T08:12:25.842Z,1.50
2019-05-14T08:15:13.161Z,1.47
2019-05-14T08:17:24.080Z,1.50
2019-05-14T08:19:52.034Z,1.67
2019-05-14T08:22:20.058Z,1.50
2019-05-14T08:24:48.905Z,1.77
2019-05-14T08:27:19.186Z,1.43
2019-05-14T08:29:48.722Z,1.70
2019-05-14T08:32:19.108Z,1.80
2019-05-14T08:34:47.998Z,1.67
2019-05-14T08:37:16.092Z,1.53
2019-05-14T08:39:44.177Z,1.70
2019-05-14T08:42:12.168Z,1.63
2019-05-14T08:44:40.263Z,1.70
2019-05-14T08:47:09.495Z,1.40
2019-05-14T08:49:45.981Z,1.70
2019-05-14T08:52:08.763Z,1.70
2019-05-14T08:54:39.126Z,1.67
2019-05-14T08:57:09.855Z,1.70
2019-05-14T08:59:39.582Z,1.67
2019-05-14T09:02:10.654Z,1.90
2019-05-14T09:04:42.866Z,1.67
2019-05-14T09:07:09.517Z,1.90
2019-05-14T09:09:38.194Z,1.77
2019-05-14T09:12:12.152Z,1.70
2019-05-14T09:14:38.684Z,1.67
2019-05-14T09:17:06.173Z,1.67
2019-05-14T09:19:34.315Z,1.80
2019-05-14T09:22:02.299Z,1.53
2019-05-14T09:24:30.389Z,1.60
2019-05-14T09:26:59.231Z,1.63
2019-05-14T09:29:29.755Z,1.60
2019-05-14T09:31:58.937Z,1.70
2019-05-14T09:34:28.974Z,1.60
2019-05-14T09:36:59.155Z,1.67
2019-05-14T09:39:28.949Z,1.67
2019-05-14T09:41:58.152Z,1.70
2019-05-14T09:44:26.159Z,1.63
2019-05-14T09:46:54.140Z,1.50
2019-05-14T09:49:22.100Z,1.33
2019-05-14T09:51:50.198Z,1.27
2019-05-14T09:54:19.622Z,1.60
2019-05-14T09:56:48.508Z,1.50
2019-05-14T09:59:18.524Z,1.60
2019-05-14T10:01:50.417Z,1.60
2019-05-14T10:04:16.718Z,2.37
2019-05-14T10:06:44.914Z,1.50
2019-05-14T10:09:13.151Z,1.43
2019-05-14T10:11:41.278Z,1.53
2019-05-14T10:14:09.278Z,1.60
2019-05-14T10:16:38.558Z,1.73
2019-05-14T10:19:06.763Z,1.30
2019-05-14T10:21:35.048Z,1.40
2019-05-14T10:24:03.029Z,1.73
2019-05-14T10:26:31.090Z,1.73
2019-05-14T10:29:00.099Z,1.60
2019-05-14T10:31:28.978Z,1.53
2019-05-14T10:33:58.854Z,1.80
2019-05-14T10:36:30.081Z,1.70
2019-05-14T10:38:58.915Z,1.87
2019-05-14T10:41:29.130Z,2.10
2019-05-14T10:43:59.085Z,1.60
2019-05-14T10:46:28.969Z,1.70
2019-05-14T10:48:58.671Z,1.40
2019-05-14T10:51:28.353Z,1.40
2019-05-14T10:53:59.140Z,2.20
2019-05-14T10:56:29.513Z,1.80
2019-05-14T10:58:58.253Z,1.60
2019-05-14T11:01:28.247Z,1.50
2019-05-14T11:03:55.948Z,1.60
2019-05-14T11:06:23.812Z,1.80
2019-05-14T11:08:51.713Z,1.80
2019-05-14T11:11:19.846Z,1.60
2019-05-14T11:13:48.103Z,1.67
2019-05-14T11:16:18.796Z,1.43
2019-05-14T11:18:49.268Z,1.43
2019-05-14T11:21:24.910Z,1.40
2019-05-14T11:23:45.953Z,1.30
2019-05-14T11:26:14.468Z,1.40
2019-05-14T11:28:42.404Z,1.50
2019-05-14T11:31:10.505Z,1.43
2019-05-14T11:33:38.952Z,1.30
2019-05-14T11:36:09.294Z,1.50
2019-05-14T11:38:37.890Z,1.70
2019-05-14T11:41:06.103Z,1.60
2019-05-14T11:43:34.106Z,1.50
2019-05-14T11:46:02.020Z,1.47
2019-05-14T11:48:30.054Z,1.53
2019-05-14T11:50:59.500Z,1.80
2019-05-14T11:53:27.732Z,1.83
2019-05-14T11:55:55.781Z,1.50
2019-05-14T11:58:23.760Z,1.70
2019-05-14T12:00:51.861Z,1.60
2019-05-14T12:03:20.023Z,1.67
2019-05-14T12:05:49.453Z,1.43
2019-05-14T12:08:18.666Z,1.67
2019-05-14T12:10:46.769Z,1.70
2019-05-14T12:13:14.518Z,1.53
2019-05-14T12:15:42.504Z,1.47
2019-05-14T12:18:10.626Z,1.50
2019-05-14T12:20:39.644Z,1.47
2019-05-14T12:23:08.915Z,1.40
2019-05-14T12:25:36.936Z,1.27
2019-05-14T12:28:04.946Z,1.53
2019-05-14T12:30:32.782Z,1.50
2019-05-14T12:33:00.651Z,1.77
2019-05-14T12:35:29.383Z,1.40
2019-05-14T12:37:58.664Z,1.27
2019-05-14T12:40:28.830Z,1.50
2019-05-14T12:42:59.201Z,1.83
2019-05-14T12:45:29.649Z,1.43
2019-05-14T12:47:58.458Z,1.60
2019-05-14T12:50:26.315Z,1.73
2019-05-14T12:52:54.348Z,1.43
2019-05-14T12:55:22.431Z,1.60
2019-05-14T12:57:50.395Z,1.80
2019-05-14T13:00:18.641Z,1.57
2019-05-14T13:02:46.870Z,1.60
2019-05-14T13:05:14.699Z,1.30
2019-05-14T13:07:42.324Z,1.50
2019-05-14T13:10:10.977Z,1.67
2019-05-14T13:12:39.245Z,1.40
2019-05-14T13:15:08.747Z,1.37
2019-05-14T13:17:38.913Z,1.60
2019-05-14T13:20:13.249Z,1.50
2019-05-14T13:22:44.940Z,1.80
2019-05-14T13:25:09.903Z,1.50
2019-05-14T13:27:39.176Z,1.70
2019-05-14T13:30:09.103Z,1.63
2019-05-14T13:32:39.083Z,1.67
2019-05-14T13:35:10.468Z,1.60
2019-05-14T13:37:39.559Z,2.17
2019-05-14T13:40:09.228Z,1.80
2019-05-14T13:42:39.389Z,1.47
2019-05-14T13:45:06.963Z,1.50
2019-05-14T13:47:34.980Z,1.80
2019-05-14T13:50:02.851Z,1.80
2019-05-14T13:52:31.932Z,1.60
2019-05-14T13:54:59.910Z,1.57
2019-05-14T13:57:28.709Z,2.40
2019-05-14T13:59:59.008Z,1.50
2019-05-14T14:02:28.860Z,1.50
2019-05-14T14:04:58.839Z,2.00
2019-05-14T14:07:26.825Z,1.50
2019-05-14T14:09:54.689Z,2.10
2019-05-14T14:12:25.108Z,1.60
2019-05-14T14:14:52.477Z,1.50
2019-05-14T14:17:20.457Z,1.60
2019-05-14T14:19:48.405Z,1.83
2019-05-14T14:22:19.091Z,1.53
2019-05-14T14:24:48.707Z,1.40
2019-05-14T14:27:19.385Z,1.60
2019-05-14T14:29:49.139Z,1.67
2019-05-14T14:32:18.590Z,1.43
2019-05-14T14:34:46.214Z,1.43
2019-05-14T14:37:14.391Z,1.40
2019-05-14T14:39:42.645Z,1.50
2019-05-14T14:42:10.646Z,1.47
2019-05-14T14:44:39.295Z,1.43
2019-05-14T14:47:08.018Z,1.67
2019-05-14T14:49:42.236Z,2.03
2019-05-14T14:52:06.241Z,1.87
2019-05-14T14:54:34.330Z,1.50
2019-05-14T14:57:02.487Z,1.73
2019-05-14T14:59:30.719Z,1.60
2019-05-14T15:01:59.715Z,1.23
2019-05-14T15:04:29.590Z,1.57
2019-05-14T15:06:59.774Z,1.70
2019-05-14T15:09:27.500Z,1.67
2019-05-14T15:11:55.374Z,1.50
2019-05-14T15:14:23.585Z,1.47
2019-05-14T15:16:51.567Z,1.47
2019-05-14T15:19:19.996Z,1.60
2019-05-14T15:21:48.858Z,1.60
2019-05-14T15:24:19.673Z,1.37
2019-05-14T15:26:47.808Z,1.60
2019-05-14T15:29:18.523Z,1.60
2019-05-14T15:31:48.377Z,1.70
2019-05-14T15:34:15.802Z,1.87
2019-05-14T15:36:43.885Z,1.97
2019-05-14T15:39:12.009Z,1.63
2019-05-14T15:41:40.101Z,1.90
2019-05-14T15:44:08.991Z,1.93
2019-05-14T15:46:41.608Z,2.07
2019-05-14T15:49:08.987Z,1.50
2019-05-14T15:51:39.749Z,1.80
2019-05-14T15:54:32.640Z,1.90
2019-05-14T15:56:39.488Z,1.90
2019-05-14T15:59:08.747Z,2.03
2019-05-14T16:01:39.614Z,1.70
2019-05-14T16:04:11.152Z,2.30
2019-05-14T16:06:38.556Z,2.13
2019-05-14T16:09:06.625Z,1.87
2019-05-14T16:11:34.637Z,1.77
2019-05-14T16:14:02.640Z,1.60
2019-05-14T16:16:30.463Z,2.00
2019-05-14T16:18:59.762Z,2.03
2019-05-14T16:21:28.919Z,1.90
2019-05-14T16:23:58.825Z,1.70
2019-05-14T16:26:29.214Z,1.47
2019-05-14T16:28:59.215Z,1.70
2019-05-14T16:31:28.071Z,1.70
2019-05-14T16:33:56.868Z,1.50
2019-05-14T16:36:24.666Z,1.50
2019-05-14T16:38:52.405Z,1.50
2019-05-14T16:41:20.046Z,1.60
2019-05-14T16:43:49.565Z,1.80
2019-05-14T16:46:18.287Z,1.47
2019-05-14T16:48:48.673Z,1.60
2019-05-14T16:51:19.122Z,1.50
2019-05-14T16:53:48.607Z,1.60
2019-05-14T16:56:18.453Z,1.47
2019-05-14T16:58:46.602Z,1.60
2019-05-14T17:01:14.743Z,1.43
2019-05-14T17:03:42.661Z,1.67
2019-05-14T17:06:10.694Z,1.97
2019-05-14T17:08:39.344Z,1.63
2019-05-14T17:11:08.937Z,1.70
2019-05-14T17:13:38.191Z,1.40
2019-05-14T17:16:08.309Z,1.90
2019-05-14T17:18:36.182Z,1.60
2019-05-14T17:21:04.181Z,1.70
2019-05-14T17:23:31.947Z,1.77
2019-05-14T17:26:00.081Z,1.40
2019-05-14T17:28:28.649Z,1.60
2019-05-14T17:30:56.842Z,1.70
2019-05-14T17:33:24.584Z,1.77
2019-05-14T17:35:52.580Z,1.60
2019-05-14T17:38:22.198Z,1.53
2019-05-14T17:40:49.861Z,1.60
2019-05-14T17:43:19.466Z,1.70
2019-05-14T17:45:48.295Z,1.40
2019-05-14T17:48:18.323Z,1.87
2019-05-14T17:50:48.486Z,1.93
2019-05-14T17:53:18.194Z,1.80
2019-05-14T17:55:48.204Z,1.70
2019-05-14T17:58:18.618Z,1.70
2019-05-14T18:00:45.949Z,1.50
2019-05-14T18:03:13.947Z,1.60
2019-05-14T18:05:43.755Z,1.60
2019-05-14T18:08:11.958Z,1.60
2019-05-14T18:10:39.797Z,1.70
2019-05-14T18:13:09.275Z,1.77
2019-05-14T18:15:39.466Z,1.73
2019-05-14T18:18:08.875Z,1.57
2019-05-14T18:20:39.464Z,1.43
2019-05-14T18:23:11.483Z,1.43
2019-05-14T18:25:38.915Z,1.67
2019-05-14T18:28:09.346Z,1.43
2019-05-14T18:30:38.623Z,1.30
2019-05-14T18:33:07.985Z,1.33
2019-05-14T18:35:42.398Z,1.40
2019-05-14T18:38:08.278Z,1.37
2019-05-14T18:40:36.330Z,1.20
2019-05-14T18:43:04.448Z,1.30
2019-05-14T18:45:34.231Z,1.20
2019-05-14T18:48:02.166Z,1.27
2019-05-14T18:50:30.973Z,1.20
2019-05-14T18:52:59.838Z,1.27
2019-05-14T18:55:29.264Z,1.53
2019-05-14T18:57:59.294Z,1.20
2019-05-14T19:00:29.443Z,1.20
2019-05-14T19:02:57.950Z,1.30
2019-05-14T19:05:29.503Z,1.20
2019-05-14T19:07:59.270Z,1.37
2019-05-14T19:10:28.132Z,1.20
2019-05-14T19:12:58.629Z,1.30
2019-05-14T19:15:26.364Z,1.37
2019-05-14T19:17:58.728Z,1.30
2019-05-14T19:20:28.280Z,1.17
2019-05-14T19:22:56.450Z,1.40
2019-05-14T19:25:24.480Z,1.30
2019-05-14T19:27:52.353Z,3.30
2019-05-14T19:30:20.395Z,1.30
2019-05-14T19:32:48.724Z,1.30
2019-05-14T19:35:18.934Z,1.10
2019-05-14T19:37:48.815Z,1.33
2019-05-14T19:40:19.367Z,1.10
2019-05-14T19:42:48.487Z,1.40
2019-05-14T19:45:18.929Z,1.57
2019-05-14T19:47:49.139Z,1.33
2019-05-14T19:50:18.770Z,1.23
2019-05-14T19:52:48.739Z,1.40
2019-05-14T19:55:18.915Z,1.27
2019-05-14T19:57:49.030Z,1.20
2019-05-14T20:00:22.853Z,1.27
2019-05-14T20:02:51.231Z,1.27
2019-05-14T20:05:19.255Z,1.40
2019-05-14T20:07:49.062Z,1.20
2019-05-14T20:10:17.306Z,1.60
2019-05-14T20:12:45.652Z,1.50
2019-05-14T20:15:14.036Z,1.50
2019-05-14T20:17:41.920Z,1.70
2019-05-14T20:20:10.131Z,1.07
2019-05-14T20:22:39.239Z,1.40
2019-05-14T20:25:07.854Z,1.40
2019-05-14T20:27:36.024Z,1.60
2019-05-14T20:30:05.094Z,1.20
2019-05-14T20:32:33.321Z,1.40
2019-05-14T20:35:01.893Z,1.20
2019-05-14T20:37:30.093Z,1.30
2019-05-14T20:39:59.087Z,1.43
2019-05-14T20:42:29.021Z,1.43
2019-05-14T20:44:57.173Z,1.30
2019-05-14T20:47:25.096Z,1.27
2019-05-14T20:49:53.102Z,1.30
2019-05-14T20:52:21.045Z,1.27
2019-05-14T20:54:49.894Z,1.30
2019-05-14T20:57:24.440Z,1.30
2019-05-14T20:59:48.325Z,1.33
2019-05-14T21:02:18.590Z,1.30
2019-05-14T21:04:53.514Z,1.43
2019-05-14T21:07:16.239Z,1.30
2019-05-14T21:09:48.990Z,1.50
2019-05-14T21:12:18.758Z,1.43
2019-05-14T21:14:49.171Z,1.50
2019-05-14T21:17:16.290Z,1.30
2019-05-14T21:19:44.332Z,1.50
2019-05-14T21:22:13.289Z,1.20
2019-05-14T21:24:41.238Z,1.13
2019-05-14T21:27:09.482Z,1.20
2019-05-14T21:29:38.212Z,1.20
2019-05-14T21:32:08.226Z,1.30
2019-05-14T21:34:38.282Z,1.30
2019-05-14T21:37:08.838Z,1.30
2019-05-14T21:39:38.240Z,1.20
2019-05-14T21:42:07.736Z,1.20
2019-05-14T21:44:39.186Z,1.20
2019-05-14T21:47:08.320Z,1.37
2019-05-14T21:49:38.804Z,1.20
2019-05-14T21:52:08.888Z,1.30
2019-05-14T21:54:39.266Z,1.30
2019-05-14T21:57:08.553Z,1.20
2019-05-14T21:59:38.875Z,1.47
2019-05-14T22:02:07.344Z,1.27
2019-05-14T22:04:35.592Z,1.50
2019-05-14T22:07:03.626Z,1.27
2019-05-14T22:09:32.122Z,1.20
2019-05-14T22:12:00.571Z,1.57
2019-05-14T22:14:28.611Z,1.33
2019-05-14T22:16:58.431Z,1.40
2019-05-14T22:19:28.563Z,1.30
2019-05-14T22:21:58.719Z,1.33
2019-05-14T22:24:28.722Z,1.37
2019-05-14T22:26:58.178Z,1.37
2019-05-14T22:29:28.484Z,1.30
2019-05-14T22:31:58.700Z,1.20
2019-05-14T22:35:33.231Z,1.20
2019-05-14T22:41:50.668Z,1.00
2019-05-14T22:44:18.744Z,1.20
2019-05-14T22:46:48.533Z,1.00
2019-05-14T22:49:19.142Z,1.00
2019-05-14T22:51:49.095Z,1.13
2019-05-14T22:54:17.731Z,1.30
2019-05-14T22:56:48.150Z,0.97
2019-05-14T22:59:20.356Z,1.10
2019-05-14T23:01:48.069Z,1.20
2019-05-14T23:04:18.066Z,1.20
2019-05-14T23:06:46.056Z,1.20
2019-05-14T23:09:16.391Z,1.00
2019-05-14T23:11:44.045Z,1.00
2019-05-14T23:14:13.021Z,1.10
2019-05-14T23:16:41.977Z,1.00
2019-05-14T23:19:10.318Z,0.93
2019-05-14T23:21:39.182Z,0.90
2019-05-14T23:24:09.210Z,1.00
2019-05-14T23:26:37.463Z,1.00
2019-05-14T23:29:05.579Z,0.80
2019-05-14T23:31:33.775Z,0.90
2019-05-14T23:34:01.895Z,0.80
2019-05-14T23:36:29.722Z,1.00
2019-05-14T23:38:59.154Z,0.80
2019-05-14T23:41:28.634Z,0.83
2019-05-14T23:43:56.663Z,0.80
2019-05-14T23:46:24.577Z,0.80
2019-05-14T23:48:52.490Z,0.60
2019-05-14T23:51:20.494Z,0.70
2019-05-14T23:53:48.497Z,0.70
2019-05-14T23:56:19.125Z,0.70
2019-05-14T23:58:54.924Z,0.70
